Time;durP1;ratioP1;P1;durP2;ratioP2;P2;SDS_P1;SDS_P2;PMS_P1;PMS_P2;Temp;Humidity;BMP_temperature;BMP_pressure;BME280_temperature;BME280_humidity;BME280_pressure;Samples;Min_cycle;Max_cycle;Signal;HPM_P1;HPM_P2
2022/02/14 00:02:19;;;;;;;7.70;2.63;;;6.90;99.90;;;;;;5077215;28;20059;-74
2022/02/14 00:04:47;;;;;;;7.15;2.53;;;6.90;99.90;;;;;;5078638;28;20020;-74
2022/02/14 00:07:14;;;;;;;6.18;2.78;;;6.90;99.90;;;;;;5078075;28;20413;-74
2022/02/14 00:09:41;;;;;;;6.93;2.75;;;6.80;99.90;;;;;;5078040;28;20036;-73
2022/02/14 00:12:09;;;;;;;7.93;2.15;;;6.80;99.90;;;;;;5077879;28;20029;-74
2022/02/14 00:14:36;;;;;;;5.90;2.40;;;6.90;99.90;;;;;;5077678;28;20020;-74
2022/02/14 00:17:03;;;;;;;9.90;3.30;;;6.90;99.90;;;;;;5082759;28;20059;-74
2022/02/14 00:19:30;;;;;;;6.00;3.53;;;6.90;99.90;;;;;;5097474;28;20020;-74
2022/02/14 00:21:58;;;;;;;9.35;2.90;;;6.90;99.90;;;;;;5097269;28;20077;-74
2022/02/14 00:24:25;;;;;;;5.00;2.88;;;6.90;99.90;;;;;;5097292;28;20058;-74
2022/02/14 00:26:53;;;;;;;4.32;2.65;;;6.90;99.90;;;;;;5097381;28;20035;-74
2022/02/14 00:29:22;;;;;;;6.03;2.33;;;6.80;99.90;;;;;;5096925;28;20020;-74
2022/02/14 00:31:49;;;;;;;6.22;2.47;;;6.90;99.90;;;;;;5097118;28;20020;-74
2022/02/14 00:34:17;;;;;;;5.20;2.38;;;6.90;99.90;;;;;;5097871;28;20032;-74
2022/02/14 00:36:44;;;;;;;11.25;2.20;;;6.90;99.90;;;;;;5097878;28;20016;-74
2022/02/14 00:39:12;;;;;;;4.22;2.50;;;6.80;99.90;;;;;;5098077;28;20376;-74
2022/02/14 00:41:39;;;;;;;5.03;2.58;;;6.80;99.90;;;;;;5098461;28;20103;-74
2022/02/14 00:44:07;;;;;;;5.18;2.42;;;6.80;99.90;;;;;;5097971;28;20343;-74
2022/02/14 00:46:34;;;;;;;6.57;2.25;;;6.80;99.90;;;;;;5097791;28;20105;-74
2022/02/14 00:49:02;;;;;;;6.03;2.60;;;6.80;99.90;;;;;;5097976;28;20047;-74
2022/02/14 00:51:29;;;;;;;6.03;2.20;;;6.80;99.90;;;;;;5097231;28;20032;-74
2022/02/14 00:53:56;;;;;;;2.83;1.75;;;6.90;99.90;;;;;;5096619;28;20331;-74
2022/02/14 00:56:24;;;;;;;5.47;2.03;;;6.90;99.90;;;;;;5096717;28;20024;-74
2022/02/14 00:58:51;;;;;;;9.50;2.50;;;6.90;99.90;;;;;;5096950;28;20031;-74
2022/02/14 01:01:19;;;;;;;4.07;2.53;;;6.90;99.90;;;;;;5096616;28;20028;-74
2022/02/14 01:03:47;;;;;;;7.00;2.28;;;6.90;99.90;;;;;;5096814;28;20016;-74
2022/02/14 01:06:14;;;;;;;5.10;2.22;;;6.90;99.90;;;;;;5096589;28;20469;-74
2022/02/14 01:08:41;;;;;;;6.82;2.05;;;6.90;99.90;;;;;;5096810;28;20043;-74
2022/02/14 01:11:09;;;;;;;5.43;1.45;;;6.90;99.90;;;;;;5096894;28;20024;-74
2022/02/14 01:13:37;;;;;;;7.32;2.22;;;6.90;99.90;;;;;;5097468;28;20044;-74
2022/02/14 01:16:04;;;;;;;3.35;1.98;;;6.90;99.90;;;;;;5097502;28;20020;-74
2022/02/14 01:18:31;;;;;;;11.57;3.22;;;7.00;99.90;;;;;;5097279;28;20083;-74
2022/02/14 01:20:59;;;;;;;3.58;1.95;;;7.00;99.90;;;;;;5097417;28;20024;-74
2022/02/14 01:23:26;;;;;;;4.25;1.55;;;7.00;99.90;;;;;;5097390;28;20412;-74
2022/02/14 01:25:53;;;;;;;2.90;1.60;;;7.00;99.90;;;;;;5097622;28;20321;-74
2022/02/14 01:28:21;;;;;;;8.80;2.72;;;6.90;99.90;;;;;;5078963;28;20016;-74
2022/02/14 01:30:48;;;;;;;5.15;1.92;;;6.90;99.90;;;;;;5078601;28;20027;-74
2022/02/14 01:33:15;;;;;;;6.55;2.25;;;6.90;99.90;;;;;;5096367;28;20346;-74
2022/02/14 01:35:43;;;;;;;5.50;2.15;;;6.90;99.90;;;;;;5096309;28;20029;-74
2022/02/14 01:38:10;;;;;;;8.88;2.22;;;6.90;99.90;;;;;;5096310;28;20020;-74
2022/02/14 01:40:37;;;;;;;3.95;1.80;;;6.80;99.90;;;;;;5096836;28;20070;-74
2022/02/14 01:43:04;;;;;;;3.40;1.55;;;6.90;99.90;;;;;;5096762;28;20103;-74
2022/02/14 01:45:32;;;;;;;6.90;3.67;;;6.90;99.90;;;;;;5098998;28;20016;-74
2022/02/14 01:47:59;;;;;;;7.50;2.72;;;6.90;99.90;;;;;;5101307;28;20073;-74
2022/02/14 01:50:26;;;;;;;2.78;1.90;;;6.90;99.90;;;;;;5101053;28;20017;-74
2022/02/14 01:52:54;;;;;;;6.60;2.33;;;6.80;99.90;;;;;;5084056;28;20376;-74
2022/02/14 01:55:21;;;;;;;8.77;2.70;;;6.80;99.90;;;;;;5082870;28;20027;-74
2022/02/14 01:57:50;;;;;;;7.75;2.83;;;6.80;99.90;;;;;;5082887;28;20023;-74
2022/02/14 02:00:20;;;;;;;4.93;2.25;;;6.80;99.90;;;;;;5101699;28;20031;-74
2022/02/14 02:02:47;;;;;;;4.13;2.10;;;6.70;99.90;;;;;;5100821;28;20415;-74
2022/02/14 02:05:14;;;;;;;7.55;2.25;;;6.70;99.90;;;;;;5081805;28;20138;-74
2022/02/14 02:07:42;;;;;;;8.15;2.13;;;6.70;99.90;;;;;;5099746;28;20020;-74
2022/02/14 02:10:12;;;;;;;6.38;2.58;;;6.70;99.90;;;;;;5099724;28;20035;-73
2022/02/14 02:12:52;;;;;;;4.10;1.88;;;6.70;99.90;;;;;;5099946;28;20028;-74
2022/02/14 02:15:20;;;;;;;8.18;2.65;;;6.60;99.90;;;;;;5099648;28;20317;-74
2022/02/14 02:17:47;;;;;;;4.20;2.00;;;6.60;99.90;;;;;;5099693;28;20048;-74
2022/02/14 02:20:17;;;;;;;7.43;3.20;;;6.60;99.90;;;;;;5099493;28;20025;-74
2022/02/14 02:22:46;;;;;;;7.38;2.33;;;6.60;99.90;;;;;;5099878;28;20028;-74
2022/02/14 02:25:15;;;;;;;5.13;2.25;;;6.60;99.90;;;;;;5100581;28;20022;-74
2022/02/14 02:27:42;;;;;;;8.63;2.78;;;6.60;99.90;;;;;;5100596;28;20362;-74
2022/02/14 02:30:12;;;;;;;6.88;2.50;;;6.60;99.90;;;;;;5082265;28;20028;-74
2022/02/14 02:32:41;;;;;;;6.88;2.05;;;6.60;99.90;;;;;;5100675;28;20020;-74
2022/02/14 02:35:09;;;;;;;4.82;1.40;;;6.60;99.90;;;;;;5100164;28;20054;-74
2022/02/14 02:37:36;;;;;;;4.82;2.33;;;6.60;99.90;;;;;;5082179;28;20020;-74
2022/02/14 02:40:05;;;;;;;5.72;2.00;;;6.60;99.90;;;;;;5064985;28;20351;-74
2022/02/14 02:42:32;;;;;;;6.82;2.38;;;6.60;99.90;;;;;;5099441;28;20111;-74
2022/02/14 02:44:59;;;;;;;3.35;1.55;;;6.60;99.90;;;;;;5099633;28;20023;-74
2022/02/14 02:47:27;;;;;;;5.88;2.00;;;6.60;99.90;;;;;;5099220;28;20020;-74
2022/02/14 02:49:54;;;;;;;4.25;1.70;;;6.60;99.90;;;;;;5099197;28;20040;-74
2022/02/14 02:52:22;;;;;;;3.88;1.90;;;6.60;99.90;;;;;;5098819;28;20028;-74
2022/02/14 02:54:50;;;;;;;3.03;1.27;;;6.60;99.90;;;;;;5098861;28;20420;-74
2022/02/14 02:57:18;;;;;;;3.92;2.15;;;6.60;99.90;;;;;;5098936;28;20070;-74
2022/02/14 02:59:45;;;;;;;8.15;2.35;;;6.60;99.90;;;;;;5100154;28;20020;-74
2022/02/14 03:02:13;;;;;;;4.20;1.90;;;6.60;99.90;;;;;;5099672;28;20541;-74
2022/02/14 03:04:41;;;;;;;9.15;2.38;;;6.60;99.90;;;;;;5099498;28;20035;-74
2022/02/14 03:07:08;;;;;;;6.32;2.17;;;6.60;99.90;;;;;;5081636;28;20408;-74
2022/02/14 03:09:36;;;;;;;5.30;1.83;;;6.60;99.90;;;;;;5081511;28;20418;-74
2022/02/14 03:12:04;;;;;;;6.72;2.75;;;6.60;99.90;;;;;;5099607;28;20438;-73
2022/02/14 03:14:31;;;;;;;7.32;2.63;;;6.60;99.90;;;;;;5099222;28;20062;-74
2022/02/14 03:16:59;;;;;;;6.00;1.88;;;6.60;99.90;;;;;;5098692;28;20052;-74
2022/02/14 03:19:26;;;;;;;5.18;1.98;;;6.60;99.90;;;;;;5098599;28;20412;-74
2022/02/14 03:21:55;;;;;;;8.18;2.08;;;6.60;99.90;;;;;;5098955;28;20032;-74
2022/02/14 03:24:22;;;;;;;5.10;2.22;;;6.60;99.90;;;;;;5098085;28;20552;-74
2022/02/14 03:26:50;;;;;;;4.13;1.75;;;6.60;99.90;;;;;;5098148;28;20395;-74
2022/02/14 03:29:17;;;;;;;9.75;2.33;;;6.50;99.90;;;;;;5098134;28;20108;-74
2022/02/14 03:31:45;;;;;;;6.75;1.83;;;6.60;99.90;;;;;;5098305;28;20020;-74
2022/02/14 03:34:13;;;;;;;4.53;2.03;;;6.60;99.90;;;;;;5097983;28;20035;-74
2022/02/14 03:36:42;;;;;;;8.52;3.80;;;6.60;99.90;;;;;;5081689;28;20358;-74
2022/02/14 03:39:10;;;;;;;9.48;3.17;;;6.70;99.90;;;;;;5098890;28;20026;-74
2022/02/14 03:41:38;;;;;;;10.65;3.85;;;6.70;99.90;;;;;;5099245;28;20289;-74
2022/02/14 03:44:05;;;;;;;16.90;5.97;;;6.70;99.90;;;;;;5098775;28;20023;-74
2022/02/14 03:46:32;;;;;;;20.83;6.57;;;6.70;99.90;;;;;;5099059;28;20099;-74
2022/02/14 03:49:01;;;;;;;24.35;7.70;;;6.70;99.90;;;;;;5098921;28;20431;-74
2022/02/14 03:51:28;;;;;;;8.20;2.90;;;6.70;99.90;;;;;;5098987;28;20332;-74
2022/02/14 03:53:55;;;;;;;11.15;2.78;;;6.70;99.90;;;;;;5080384;28;20027;-74
2022/02/14 03:56:23;;;;;;;9.23;4.18;;;6.70;99.90;;;;;;5079867;28;20016;-74
2022/02/14 03:58:50;;;;;;;6.88;3.03;;;6.70;99.90;;;;;;5097652;28;20327;-74
2022/02/14 04:01:17;;;;;;;7.20;3.63;;;6.70;99.90;;;;;;5079463;28;20081;-74
2022/02/14 04:03:45;;;;;;;8.20;3.30;;;6.70;99.90;;;;;;5079567;28;20024;-74
2022/02/14 04:06:12;;;;;;;8.93;3.67;;;6.70;99.90;;;;;;5097444;28;20095;-74
2022/02/14 04:08:39;;;;;;;4.03;2.22;;;6.70;99.90;;;;;;5097284;28;20022;-74
2022/02/14 04:11:06;;;;;;;4.20;1.92;;;6.70;99.90;;;;;;5098116;28;20024;-74
2022/02/14 04:13:33;;;;;;;8.10;2.72;;;6.70;99.90;;;;;;5063767;28;20090;-74
2022/02/14 04:16:00;;;;;;;3.80;1.95;;;6.70;99.90;;;;;;5099234;28;20316;-74
2022/02/14 04:18:29;;;;;;;7.50;1.60;;;6.70;99.90;;;;;;5098031;28;20450;-74
2022/02/14 04:20:56;;;;;;;3.83;1.35;;;6.80;99.90;;;;;;5098631;28;20418;-74
2022/02/14 04:23:24;;;;;;;7.75;2.60;;;6.90;99.90;;;;;;5098097;28;20439;-74
2022/02/14 04:25:52;;;;;;;5.30;2.38;;;6.90;99.90;;;;;;5098798;28;20116;-74
2022/02/14 04:28:19;;;;;;;8.05;2.10;;;6.90;99.90;;;;;;5097845;28;20016;-74
2022/02/14 04:30:47;;;;;;;6.25;1.80;;;6.90;99.90;;;;;;5097107;28;20048;-74
2022/02/14 04:33:14;;;;;;;4.68;1.38;;;7.00;99.90;;;;;;5097275;28;20077;-74
2022/02/14 04:35:42;;;;;;;2.75;1.80;;;7.00;99.90;;;;;;5097459;28;20031;-74
2022/02/14 04:38:09;;;;;;;5.95;2.00;;;7.00;99.90;;;;;;5096965;28;20099;-74
2022/02/14 04:40:39;;;;;;;7.35;1.85;;;7.00;99.90;;;;;;5097017;28;20023;-74
2022/02/14 04:43:08;;;;;;;4.97;1.65;;;7.00;99.90;;;;;;5097580;28;20125;-74
2022/02/14 04:45:36;;;;;;;6.13;1.90;;;7.00;99.90;;;;;;5079248;28;20024;-74
2022/02/14 04:48:04;;;;;;;4.15;1.70;;;7.00;99.90;;;;;;5097189;28;20443;-74
2022/02/14 04:50:31;;;;;;;5.72;1.60;;;7.00;99.90;;;;;;5097760;28;20024;-74
2022/02/14 04:52:58;;;;;;;6.20;1.52;;;7.10;99.90;;;;;;5097695;28;20020;-74
2022/02/14 04:55:26;;;;;;;8.07;1.90;;;7.10;99.90;;;;;;5098074;28;20407;-74
2022/02/14 04:57:53;;;;;;;4.50;1.83;;;7.10;99.90;;;;;;5079943;28;20327;-74
2022/02/14 05:00:21;;;;;;;4.43;1.38;;;7.20;99.90;;;;;;5097633;28;20016;-74
2022/02/14 05:02:49;;;;;;;5.78;2.55;;;7.10;99.90;;;;;;5097461;28;20027;-74
2022/02/14 05:05:16;;;;;;;2.67;1.13;;;7.20;99.90;;;;;;5097514;28;20329;-74
2022/02/14 05:07:45;;;;;;;3.25;1.50;;;7.20;99.90;;;;;;5096730;28;20020;-74
2022/02/14 05:10:12;;;;;;;6.80;1.98;;;7.30;99.90;;;;;;5096464;28;20424;-74
2022/02/14 05:12:40;;;;;;;5.22;1.33;;;7.20;99.90;;;;;;5097100;28;20434;-74
2022/02/14 05:15:07;;;;;;;3.97;1.48;;;7.20;99.90;;;;;;5096769;28;20035;-74
2022/02/14 05:17:35;;;;;;;11.10;2.10;;;7.20;99.90;;;;;;5096767;28;20044;-74
2022/02/14 05:20:04;;;;;;;4.93;1.90;;;7.10;99.90;;;;;;5098333;28;20104;-74
2022/02/14 05:22:32;;;;;;;9.63;2.33;;;7.10;99.90;;;;;;5100537;28;20035;-74
2022/02/14 05:24:59;;;;;;;4.47;1.83;;;7.10;99.90;;;;;;5101515;28;20016;-74
2022/02/14 05:27:26;;;;;;;6.28;2.30;;;7.10;99.90;;;;;;5083915;28;20405;-74
2022/02/14 05:29:54;;;;;;;10.98;5.30;;;7.10;99.90;;;;;;5101700;28;20103;-74
2022/02/14 05:32:22;;;;;;;3.45;1.40;;;7.10;99.90;;;;;;5102015;28;20024;-74
2022/02/14 05:34:49;;;;;;;5.60;1.98;;;7.10;99.90;;;;;;5101281;28;20381;-74
2022/02/14 05:37:16;;;;;;;7.68;1.80;;;7.10;99.90;;;;;;5102350;28;20008;-74
2022/02/14 05:39:45;;;;;;;8.43;2.40;;;7.10;99.90;;;;;;5101479;28;20070;-74
2022/02/14 05:42:13;;;;;;;7.20;2.90;;;7.10;99.90;;;;;;5100780;28;20020;-74
2022/02/14 05:44:40;;;;;;;5.57;2.45;;;7.00;99.90;;;;;;5082165;28;20016;-74
2022/02/14 05:47:08;;;;;;;9.13;2.67;;;7.00;99.90;;;;;;5100614;28;20047;-74
2022/02/14 05:49:36;;;;;;;5.40;2.08;;;6.90;99.90;;;;;;5082110;28;20074;-74
2022/02/14 05:52:04;;;;;;;3.70;1.63;;;6.90;99.90;;;;;;5100136;28;20016;-74
2022/02/14 05:54:31;;;;;;;4.53;1.80;;;6.90;99.90;;;;;;5100050;28;20034;-74
2022/02/14 05:56:58;;;;;;;4.90;2.47;;;6.80;99.90;;;;;;5100446;28;20084;-74
2022/02/14 05:59:26;;;;;;;4.32;2.00;;;6.80;99.90;;;;;;5100457;28;20031;-74
2022/02/14 06:01:53;;;;;;;4.20;2.17;;;6.80;99.90;;;;;;5082594;28;20028;-74
2022/02/14 06:04:20;;;;;;;8.88;1.92;;;6.80;99.90;;;;;;5100962;28;20032;-74
2022/02/14 06:06:48;;;;;;;7.38;2.25;;;6.80;99.90;;;;;;5100927;28;20020;-74
2022/02/14 06:09:15;;;;;;;4.47;2.15;;;6.80;99.90;;;;;;5100926;28;20020;-74
2022/02/14 06:11:43;;;;;;;5.50;1.95;;;6.80;99.90;;;;;;5100594;28;20032;-74
2022/02/14 06:14:11;;;;;;;6.70;2.33;;;6.70;99.90;;;;;;5082634;28;20066;-75
2022/02/14 06:16:38;;;;;;;5.78;2.45;;;6.70;99.90;;;;;;5100514;28;20416;-75
2022/02/14 06:19:05;;;;;;;5.72;1.90;;;6.60;99.90;;;;;;5098539;28;20081;-75
2022/02/14 06:21:33;;;;;;;10.50;2.10;;;6.60;99.90;;;;;;5098223;28;20047;-78
2022/02/14 06:24:02;;;;;;;6.25;2.42;;;6.60;99.90;;;;;;5098561;28;20016;-75
2022/02/14 06:26:32;;;;;;;4.30;2.08;;;6.60;99.90;;;;;;5080788;28;20324;-75
2022/02/14 06:29:00;;;;;;;3.40;1.90;;;6.60;99.90;;;;;;5097982;28;20027;-75
2022/02/14 06:31:28;;;;;;;3.28;1.52;;;6.60;99.90;;;;;;5097793;28;20416;-75
2022/02/14 06:33:56;;;;;;;4.85;1.85;;;6.60;99.90;;;;;;5098154;28;20024;-77
2022/02/14 06:36:26;;;;;;;3.67;1.50;;;6.60;99.90;;;;;;5080358;28;20059;-75
2022/02/14 06:38:59;;;;;;;3.50;1.75;;;6.70;99.90;;;;;;5098566;28;20075;-74
2022/02/14 06:41:27;;;;;;;4.40;2.30;;;6.70;99.90;;;;;;5098918;28;20031;-72
2022/02/14 06:43:56;;;;;;;4.13;1.92;;;6.70;99.90;;;;;;5099405;28;20316;-72
2022/02/14 06:46:23;;;;;;;6.72;1.23;;;6.70;99.90;;;;;;5099070;28;20043;-73
2022/02/14 06:48:50;;;;;;;2.83;1.35;;;6.80;99.90;;;;;;5098950;28;20055;-72
2022/02/14 06:51:18;;;;;;;6.97;1.92;;;6.90;99.90;;;;;;5099383;28;20078;-73
2022/02/14 06:53:46;;;;;;;7.45;1.95;;;6.90;99.90;;;;;;5098810;28;20058;-73
2022/02/14 06:56:14;;;;;;;5.55;1.60;;;7.00;99.90;;;;;;5099151;28;20016;-74
2022/02/14 06:58:42;;;;;;;6.40;1.73;;;7.10;99.90;;;;;;5097830;28;20021;-74
2022/02/14 07:01:09;;;;;;;6.90;2.45;;;7.20;99.90;;;;;;5097758;28;20358;-74
2022/02/14 07:03:37;;;;;;;4.45;1.98;;;7.20;99.90;;;;;;5098202;28;20020;-74
2022/02/14 07:06:09;;;;;;;2.85;1.38;;;7.30;99.90;;;;;;5098226;28;20028;-73
2022/02/14 07:08:36;;;;;;;8.40;1.70;;;7.40;99.90;;;;;;5098203;28;20024;-74
2022/02/14 07:11:04;;;;;;;4.20;1.70;;;7.40;99.90;;;;;;5097732;28;20027;-75
2022/02/14 07:13:31;;;;;;;5.40;1.33;;;7.40;99.90;;;;;;5097887;28;20099;-72
2022/02/14 07:16:00;;;;;;;5.30;1.45;;;7.50;99.90;;;;;;5097730;28;20024;-73
2022/02/14 07:18:28;;;;;;;4.13;1.90;;;7.50;99.90;;;;;;4979828;28;3398590;-72
2022/02/14 07:20:57;;;;;;;5.90;1.55;;;7.60;99.90;;;;;;5099291;28;20028;-72
2022/02/14 07:23:24;;;;;;;5.72;1.80;;;7.60;99.90;;;;;;5099855;28;20111;-72
2022/02/14 07:25:52;;;;;;;6.63;1.80;;;7.70;99.90;;;;;;5081693;28;20020;-72
2022/02/14 07:28:21;;;;;;;7.43;2.03;;;7.70;99.90;;;;;;5099248;28;20028;-72
2022/02/14 07:30:48;;;;;;;3.65;1.50;;;7.70;99.90;;;;;;5099257;28;20027;-72
2022/02/14 07:33:18;;;;;;;3.50;1.55;;;7.70;99.90;;;;;;5098957;28;20024;-72
2022/02/14 07:38:53;;;;;;;1.58;0.82;;;7.80;99.90;;;;;;5062347;28;20481;-71
2022/02/14 07:41:21;;;;;;;8.25;1.95;;;7.90;99.90;;;;;;5097978;28;20024;-72
2022/02/14 07:43:48;;;;;;;5.50;2.40;;;7.90;99.90;;;;;;5097430;28;20025;-72
2022/02/14 07:46:17;;;;;;;4.93;1.63;;;7.90;99.90;;;;;;5080641;28;20328;-72
2022/02/14 07:48:49;;;;;;;3.58;1.50;;;8.00;99.90;;;;;;5097973;28;20435;-72
2022/02/14 07:51:17;;;;;;;3.88;1.48;;;8.10;99.90;;;;;;5097807;28;20024;-72
2022/02/14 07:53:44;;;;;;;7.15;1.85;;;8.00;99.90;;;;;;5097959;28;20073;-72
2022/02/14 07:56:14;;;;;;;4.15;1.45;;;8.10;99.90;;;;;;5098751;28;20023;-72
2022/02/14 07:58:42;;;;;;;7.65;1.60;;;8.10;99.90;;;;;;5098872;28;20497;-72
2022/02/14 08:01:11;;;;;;;6.40;1.38;;;8.10;99.90;;;;;;5098469;28;20024;-72
2022/02/14 08:03:39;;;;;;;5.65;1.50;;;8.10;99.90;;;;;;5098561;28;20021;-72
2022/02/14 08:06:06;;;;;;;3.88;1.98;;;8.10;99.90;;;;;;5098844;28;20024;-72
2022/02/14 08:08:34;;;;;;;5.43;1.70;;;8.10;99.90;;;;;;5080661;28;20012;-72
2022/02/14 08:11:01;;;;;;;4.70;1.30;;;8.10;99.90;;;;;;5098615;28;20323;-72
2022/02/14 08:13:28;;;;;;;4.35;1.30;;;8.10;99.90;;;;;;5097363;28;20528;-72
2022/02/14 08:15:56;;;;;;;2.80;1.35;;;8.10;99.90;;;;;;5098873;28;20024;-74
2022/02/14 08:18:24;;;;;;;6.78;1.98;;;8.10;99.90;;;;;;5097171;28;20156;-75
2022/02/14 08:20:52;;;;;;;5.25;1.60;;;8.10;99.90;;;;;;5097943;28;20056;-75
2022/02/14 08:23:19;;;;;;;5.80;1.60;;;8.10;99.90;;;;;;5097735;28;20020;-75
2022/02/14 08:25:46;;;;;;;2.90;0.90;;;8.10;99.90;;;;;;5097668;28;20024;-75
2022/02/14 08:28:15;;;;;;;5.05;1.90;;;8.20;99.90;;;;;;5097683;28;20041;-75
2022/02/14 08:30:45;;;;;;;5.57;1.60;;;8.20;99.90;;;;;;5096968;28;20052;-75
2022/02/14 08:33:13;;;;;;;4.47;1.52;;;8.30;99.90;;;;;;5098012;28;20081;-75
2022/02/14 08:35:40;;;;;;;8.75;1.98;;;8.40;99.90;;;;;;5098742;28;20408;-73
2022/02/14 08:38:07;;;;;;;4.57;1.42;;;8.40;99.90;;;;;;5080025;28;20024;-75
2022/02/14 08:40:35;;;;;;;6.28;1.83;;;8.40;99.90;;;;;;5097975;28;20073;-74
2022/02/14 08:43:04;;;;;;;5.30;1.75;;;8.40;99.90;;;;;;5097805;28;20026;-74
2022/02/14 08:45:33;;;;;;;5.07;1.73;;;8.40;99.90;;;;;;5098045;28;20020;-75
2022/02/14 08:48:01;;;;;;;5.35;1.63;;;8.50;99.90;;;;;;5098065;28;20020;-75
2022/02/14 08:50:29;;;;;;;3.80;1.60;;;8.50;99.90;;;;;;5096800;28;20020;-75
2022/02/14 08:53:00;;;;;;;6.05;1.30;;;8.60;99.90;;;;;;5096683;28;20428;-75
2022/02/14 08:55:29;;;;;;;6.53;1.60;;;8.60;99.90;;;;;;5096951;28;20032;-75
2022/02/14 08:57:56;;;;;;;5.63;2.03;;;8.70;99.90;;;;;;5078822;28;20123;-74
2022/02/14 09:00:23;;;;;;;2.80;1.58;;;8.90;99.90;;;;;;5096781;28;20024;-74
2022/02/14 09:02:51;;;;;;;3.35;1.70;;;8.90;99.90;;;;;;5096643;28;20315;-75
2022/02/14 09:05:19;;;;;;;4.15;1.60;;;9.00;99.90;;;;;;5078922;28;20319;-74
2022/02/14 09:07:47;;;;;;;6.03;1.75;;;9.10;99.90;;;;;;5096842;28;20316;-74
2022/02/14 09:10:16;;;;;;;5.30;1.67;;;9.10;99.90;;;;;;5097602;28;20016;-74
2022/02/14 09:12:46;;;;;;;3.42;1.40;;;9.20;99.90;;;;;;5098096;28;20016;-75
2022/02/14 09:15:15;;;;;;;3.83;1.63;;;9.20;99.90;;;;;;5097492;28;20106;-76
2022/02/14 09:17:43;;;;;;;3.20;1.55;;;9.20;99.90;;;;;;5097207;28;20062;-74
2022/02/14 09:20:11;;;;;;;4.85;1.65;;;9.10;99.90;;;;;;5097508;28;20049;-75
2022/02/14 09:22:39;;;;;;;9.57;2.20;;;9.10;99.90;;;;;;5097692;28;20032;-75
2022/02/14 09:25:08;;;;;;;4.95;1.27;;;9.00;99.90;;;;;;5097326;28;20027;-75
2022/02/14 09:27:36;;;;;;;9.13;1.85;;;9.00;99.90;;;;;;5096666;28;20078;-76
2022/02/14 09:30:05;;;;;;;6.68;1.30;;;8.90;99.90;;;;;;5096999;28;20517;-75
2022/02/14 09:32:32;;;;;;;4.88;1.80;;;9.00;99.90;;;;;;5096660;28;20055;-75
2022/02/14 09:35:00;;;;;;;5.43;1.95;;;9.00;99.90;;;;;;5078491;28;20031;-75
2022/02/14 09:37:27;;;;;;;4.18;1.70;;;9.00;99.90;;;;;;5097136;28;20020;-75
2022/02/14 09:39:55;;;;;;;3.70;1.90;;;9.10;99.90;;;;;;5096392;28;20022;-75
2022/02/14 09:42:22;;;;;;;4.05;1.98;;;9.30;99.90;;;;;;5096285;28;20028;-75
2022/02/14 09:44:50;;;;;;;3.42;1.38;;;9.40;99.90;;;;;;5096336;28;20097;-75
2022/02/14 09:47:17;;;;;;;5.53;1.73;;;9.50;99.90;;;;;;5097457;28;20035;-75
2022/02/14 09:49:45;;;;;;;5.68;1.95;;;9.60;99.90;;;;;;5097733;28;20056;-75
2022/02/14 09:52:12;;;;;;;5.38;1.75;;;9.70;99.90;;;;;;5097217;28;20111;-75
2022/02/14 09:54:40;;;;;;;3.50;1.67;;;9.80;99.90;;;;;;5097534;28;20028;-75
2022/02/14 09:57:08;;;;;;;5.05;1.80;;;9.90;99.90;;;;;;5097360;28;20020;-74
2022/02/14 09:59:37;;;;;;;3.80;2.08;;;10.00;99.90;;;;;;5097365;28;20099;-75
2022/02/14 10:02:26;;;;;;;5.07;1.80;;;10.00;99.90;;;;;;5097253;28;20439;-75
2022/02/14 10:05:06;;;;;;;4.40;1.52;;;10.10;99.90;;;;;;5078141;28;20042;-75
2022/02/14 10:07:48;;;;;;;2.70;1.40;;;10.20;99.90;;;;;;5100058;28;20442;-75
2022/02/14 10:10:28;;;;;;;7.90;2.92;;;10.20;99.90;;;;;;5099787;28;20104;-75
2022/02/14 10:12:59;;;;;;;4.63;1.40;;;10.20;99.90;;;;;;5099777;28;20301;-75
2022/02/14 10:15:27;;;;;;;3.08;1.45;;;10.30;99.90;;;;;;5082295;28;20031;-76
2022/02/14 10:18:00;;;;;;;5.35;2.00;;;10.40;99.90;;;;;;5099431;28;20048;-75
2022/02/14 10:20:31;;;;;;;4.70;1.92;;;10.50;99.90;;;;;;5099977;28;20032;-75
2022/02/14 10:23:03;;;;;;;5.57;2.03;;;10.50;99.90;;;;;;5100336;28;20320;-75
2022/02/14 10:25:44;;;;;;;6.13;1.73;;;10.60;99.90;;;;;;5100950;28;20016;-75
2022/02/14 10:28:18;;;;;;;4.97;1.70;;;10.70;99.90;;;;;;5100413;28;20052;-75
2022/02/14 10:31:04;;;;;;;3.95;1.70;;;10.80;99.90;;;;;;5100430;28;20052;-75
2022/02/14 10:33:51;;;;;;;5.55;1.42;;;10.80;99.90;;;;;;5100345;28;20031;-75
2022/02/14 10:36:33;;;;;;;7.30;2.10;;;10.80;99.90;;;;;;5100708;28;20416;-75
2022/02/14 10:39:10;;;;;;;6.95;1.65;;;10.80;99.90;;;;;;5099597;28;20028;-75
2022/02/14 10:41:41;;;;;;;6.97;1.42;;;10.80;99.90;;;;;;5081079;28;20047;-75
2022/02/14 10:44:15;;;;;;;4.05;1.48;;;10.80;99.90;;;;;;5099164;28;20020;-75
2022/02/14 10:46:42;;;;;;;4.18;1.95;;;10.90;99.90;;;;;;5081325;28;20031;-75
2022/02/14 10:49:10;;;;;;;4.03;1.50;;;10.90;99.90;;;;;;5099622;28;20020;-75
2022/02/14 10:51:37;;;;;;;9.73;1.70;;;11.10;99.90;;;;;;5081150;28;20040;-75
2022/02/14 10:54:06;;;;;;;4.72;1.58;;;11.20;99.90;;;;;;5099173;28;20059;-74
2022/02/14 10:56:40;;;;;;;4.38;1.77;;;11.30;99.90;;;;;;5099025;28;20412;-75
2022/02/14 10:59:17;;;;;;;5.55;2.25;;;11.30;99.90;;;;;;5099507;28;20054;-75
2022/02/14 11:01:45;;;;;;;6.93;3.00;;;11.40;99.90;;;;;;5100479;28;20103;-75
2022/02/14 11:04:13;;;;;;;6.30;1.80;;;11.60;99.90;;;;;;5099683;28;20082;-76
2022/02/14 11:06:41;;;;;;;9.18;2.15;;;11.70;99.90;;;;;;5099702;28;20047;-76
2022/02/14 11:09:09;;;;;;;10.70;2.63;;;11.80;99.90;;;;;;5099885;28;20016;-75
2022/02/14 11:11:40;;;;;;;7.25;2.83;;;11.90;99.90;;;;;;5100069;28;20016;-76
2022/02/14 11:14:08;;;;;;;2.65;1.35;;;11.90;99.90;;;;;;5099500;28;20350;-75
2022/02/14 11:16:37;;;;;;;3.75;1.67;;;11.90;99.90;;;;;;5097969;28;20024;-75
2022/02/14 11:19:10;;;;;;;4.90;1.60;;;11.90;99.90;;;;;;5097805;28;20048;-75
2022/02/14 11:21:39;;;;;;;2.90;1.40;;;11.90;99.90;;;;;;5098865;28;20103;-76
2022/02/14 11:24:18;;;;;;;6.65;1.60;;;11.90;99.90;;;;;;5080363;28;20133;-79
2022/02/14 11:27:01;;;;;;;3.72;1.52;;;11.90;99.90;;;;;;5098341;28;20095;-77
2022/02/14 11:29:28;;;;;;;2.15;1.00;;;11.90;99.90;;;;;;5098327;28;20316;-75
2022/02/14 11:32:17;;;;;;;3.92;1.60;;;11.90;99.90;;;;;;5098642;28;20027;-75
2022/02/14 11:34:57;;;;;;;3.67;1.40;;;11.80;99.90;;;;;;5099109;28;20031;-76
2022/02/14 11:37:46;;;;;;;5.30;1.42;;;11.80;99.90;;;;;;5099430;28;20319;-77
2022/02/14 11:40:32;;;;;;;5.68;1.58;;;11.70;99.90;;;;;;5099251;28;20408;-75
2022/02/14 11:43:07;;;;;;;6.25;1.80;;;11.60;99.90;;;;;;5080929;28;20331;-78
2022/02/14 11:45:36;;;;;;;5.43;1.20;;;11.50;99.90;;;;;;5099301;28;20375;-78
2022/02/14 11:48:26;;;;;;;6.15;1.48;;;11.50;99.90;;;;;;5099327;28;20024;-76
2022/02/14 11:51:08;;;;;;;5.53;1.60;;;11.30;99.90;;;;;;5098222;28;20016;-74
2022/02/14 11:53:44;;;;;;;5.43;1.52;;;11.30;99.90;;;;;;5079790;28;20415;-76
2022/02/14 11:56:23;;;;;;;4.93;1.33;;;11.30;99.90;;;;;;5097944;28;20028;-74
2022/02/14 11:59:17;;;;;;;7.53;1.42;;;11.30;99.90;;;;;;5097956;28;20082;-74
2022/02/14 12:01:51;;;;;;;3.17;1.45;;;11.40;99.90;;;;;;5098172;28;20016;-74
2022/02/14 12:04:38;;;;;;;3.28;1.60;;;11.40;99.90;;;;;;5097807;28;20020;-74
2022/02/14 12:07:27;;;;;;;3.72;1.52;;;11.40;99.90;;;;;;5097987;28;20020;-75
2022/02/14 12:09:58;;;;;;;4.53;1.45;;;11.50;99.90;;;;;;5079823;28;20020;-75
2022/02/14 12:12:59;;;;;;;4.80;1.60;;;11.50;99.90;;;;;;5098849;28;20188;-74
2022/02/14 12:20:52;;;;;;;4.53;1.90;;;11.40;99.90;;;;;;5098462;28;20027;-73
2022/02/14 12:23:31;;;;;;;4.68;1.52;;;11.40;99.90;;;;;;5080007;28;20031;-75
2022/02/14 12:25:59;;;;;;;4.72;1.33;;;11.40;99.90;;;;;;5098522;28;20045;-76
2022/02/14 12:28:27;;;;;;;4.47;1.58;;;11.40;99.90;;;;;;5078841;28;20024;-76
2022/02/14 12:30:57;;;;;;;6.43;2.53;;;11.50;99.90;;;;;;5097119;28;20315;-76
2022/02/14 12:33:25;;;;;;;3.13;2.00;;;11.60;99.90;;;;;;5097592;28;20024;-75
2022/02/14 12:35:58;;;;;;;4.65;1.85;;;11.70;99.90;;;;;;5078982;28;20416;-75
2022/02/14 12:38:27;;;;;;;4.22;1.55;;;11.70;99.90;;;;;;5096863;28;20028;-75
2022/02/14 12:41:09;;;;;;;2.60;1.20;;;11.80;99.90;;;;;;5097439;28;20024;-75
2022/02/14 12:43:49;;;;;;;4.28;1.20;;;11.80;99.90;;;;;;5097437;28;20034;-75
2022/02/14 12:46:20;;;;;;;6.55;1.50;;;11.80;99.90;;;;;;5098073;28;20031;-75
2022/02/14 12:49:03;;;;;;;6.90;3.17;;;11.70;99.90;;;;;;5098078;28;20043;-75
2022/02/14 12:51:35;;;;;;;6.15;1.63;;;11.60;99.90;;;;;;5097887;28;20331;-75
2022/02/14 12:54:05;;;;;;;4.20;1.70;;;11.40;99.90;;;;;;5097910;28;20024;-75
2022/02/14 12:56:35;;;;;;;7.63;1.95;;;11.40;99.90;;;;;;5097685;28;20358;-75
2022/02/14 12:59:05;;;;;;;4.78;1.75;;;11.30;99.90;;;;;;5098166;28;20023;-75
2022/02/14 13:01:40;;;;;;;6.43;1.80;;;11.20;99.90;;;;;;5079590;28;20032;-75
2022/02/14 13:04:13;;;;;;;6.43;1.63;;;11.00;99.90;;;;;;5097203;28;20316;-75
2022/02/14 13:06:52;;;;;;;5.78;1.60;;;10.90;99.90;;;;;;5096979;28;20073;-74
2022/02/14 13:09:26;;;;;;;5.63;2.10;;;10.60;99.90;;;;;;5096612;28;20024;-75
2022/02/14 13:11:56;;;;;;;5.57;1.73;;;10.50;99.90;;;;;;5097031;28;20020;-75
2022/02/14 13:14:41;;;;;;;7.32;1.63;;;10.30;99.90;;;;;;5096569;28;20020;-75
2022/02/14 13:17:28;;;;;;;4.22;2.00;;;10.30;99.90;;;;;;5096658;28;20056;-75